createdAt,value
2019-01-23T00:02:23.109Z,45.10
2019-01-23T00:04:52.844Z,45.52
2019-01-23T00:07:22.432Z,49.67
2019-01-23T00:09:52.011Z,49.15
2019-01-23T00:12:21.460Z,43.08
2019-01-23T00:14:51.152Z,48.78
2019-01-23T00:17:20.580Z,48.40
2019-01-23T00:19:50.111Z,42.75
2019-01-23T00:22:19.663Z,47.15
2019-01-23T00:24:49.123Z,51.18
2019-01-23T00:27:19.881Z,46.13
2019-01-23T00:29:49.470Z,44.85
2019-01-23T00:32:19.143Z,47.33
2019-01-23T00:34:48.581Z,45.85
2019-01-23T00:37:18.136Z,47.70
2019-01-23T00:39:47.715Z,51.58
2019-01-23T00:42:17.140Z,45.73
2019-01-23T00:44:46.547Z,46.60
2019-01-23T00:47:15.949Z,44.85
2019-01-23T00:49:49.278Z,46.48
2019-01-23T00:52:18.857Z,46.48
2019-01-23T00:54:48.439Z,50.50
2019-01-23T00:57:18.255Z,45.67
2019-01-23T00:59:47.785Z,46.90
2019-01-23T01:02:17.348Z,47.93
2019-01-23T01:04:46.943Z,45.98
2019-01-23T01:07:18.991Z,45.05
2019-01-23T01:09:48.470Z,49.18
2019-01-23T01:12:17.947Z,44.75
2019-01-23T01:14:47.459Z,47.45
2019-01-23T01:17:16.880Z,45.20
2019-01-23T01:19:48.028Z,48.78
2019-01-23T01:22:17.551Z,48.20
2019-01-23T01:24:46.956Z,46.63
2019-01-23T01:27:16.404Z,48.98
2019-01-23T01:29:45.896Z,48.15
2019-01-23T01:32:16.353Z,49.83
2019-01-23T01:34:45.754Z,50.85
2019-01-23T01:37:18.239Z,51.68
2019-01-23T01:39:47.680Z,47.85
2019-01-23T01:42:17.167Z,48.17
2019-01-23T01:44:46.630Z,48.78
2019-01-23T01:47:16.286Z,47.53
2019-01-23T01:49:46.200Z,49.42
2019-01-23T01:52:17.685Z,50.05
2019-01-23T01:54:46.855Z,47.48
2019-01-23T01:57:16.375Z,46.65
2019-01-23T01:59:46.149Z,48.45
2019-01-23T02:02:17.431Z,45.17
2019-01-23T02:04:46.971Z,47.90
2019-01-23T02:07:16.413Z,42.75
2019-01-23T02:09:46.170Z,49.20
2019-01-23T02:12:15.547Z,47.13
2019-01-23T02:14:47.309Z,44.58
2019-01-23T02:17:18.754Z,45.83
2019-01-23T02:19:49.802Z,45.60
2019-01-23T02:22:19.274Z,46.42
2019-01-23T02:24:51.202Z,49.55
2019-01-23T02:27:20.688Z,45.35
2019-01-23T02:29:50.176Z,46.37
2019-01-23T02:32:19.870Z,45.43
2019-01-23T02:34:49.262Z,48.60
2019-01-23T02:37:18.744Z,46.00
2019-01-23T02:39:48.564Z,43.92
2019-01-23T02:42:18.127Z,48.02
2019-01-23T02:44:47.702Z,55.67
2019-01-23T02:47:17.101Z,44.48
2019-01-23T02:49:46.546Z,46.42
2019-01-23T02:52:16.069Z,42.45
2019-01-23T02:54:45.713Z,46.23
2019-01-23T02:57:15.155Z,48.50
2019-01-23T02:59:44.646Z,48.48
2019-01-23T03:02:14.277Z,46.42
2019-01-23T03:04:44.778Z,41.83
2019-01-23T03:07:17.016Z,48.15
2019-01-23T03:09:46.958Z,50.28
2019-01-23T03:12:16.359Z,43.42
2019-01-23T03:14:45.840Z,43.25
2019-01-23T03:17:18.350Z,44.10
2019-01-23T03:19:49.512Z,50.55
2019-01-23T03:22:19.079Z,46.70
2019-01-23T03:24:51.294Z,44.35
2019-01-23T03:27:20.734Z,46.92
2019-01-23T03:29:51.606Z,44.05
2019-01-23T03:32:21.094Z,51.18
2019-01-23T03:34:50.829Z,47.60
2019-01-23T03:37:20.271Z,46.53
2019-01-23T03:39:51.281Z,41.28
2019-01-23T03:42:20.732Z,44.42
2019-01-23T03:44:50.340Z,46.60
2019-01-23T03:47:19.883Z,48.60
2019-01-23T03:49:49.477Z,48.02
2019-01-23T03:52:19.073Z,47.50
2019-01-23T03:54:48.703Z,46.88
2019-01-23T03:57:18.221Z,45.20
2019-01-23T03:59:47.834Z,45.43
2019-01-23T04:02:17.401Z,49.15
2019-01-23T04:04:46.917Z,43.35
2019-01-23T04:07:16.685Z,46.08
2019-01-23T04:09:46.152Z,48.17
2019-01-23T04:12:15.696Z,43.90
2019-01-23T04:14:45.256Z,46.75
2019-01-23T04:17:17.024Z,46.10
2019-01-23T04:19:46.508Z,45.67
2019-01-23T04:22:16.022Z,43.38
2019-01-23T04:24:45.545Z,44.67
2019-01-23T04:27:15.311Z,42.58
2019-01-23T04:29:44.791Z,45.98
2019-01-23T04:32:14.262Z,43.60
2019-01-23T04:34:43.776Z,48.60
2019-01-23T04:37:13.356Z,43.65
2019-01-23T04:39:42.892Z,47.50
2019-01-23T04:42:12.386Z,53.17
2019-01-23T04:44:41.810Z,48.42
2019-01-23T04:47:11.358Z,45.73
2019-01-23T04:49:40.976Z,50.90
2019-01-23T04:52:29.322Z,49.30
2019-01-23T04:54:58.824Z,45.92
2019-01-23T04:57:28.335Z,46.10
2019-01-23T04:59:57.767Z,44.23
2019-01-23T05:02:27.247Z,42.45
2019-01-23T05:04:57.034Z,45.20
2019-01-23T05:07:26.468Z,45.10
2019-01-23T05:09:55.930Z,46.35
2019-01-23T05:12:25.460Z,45.25
2019-01-23T05:14:56.318Z,44.20
2019-01-23T05:17:29.766Z,44.50
2019-01-23T05:20:01.249Z,49.42
2019-01-23T05:22:30.824Z,45.17
2019-01-23T05:25:00.498Z,45.88
2019-01-23T05:27:29.944Z,49.03
2019-01-23T05:29:59.711Z,51.53
2019-01-23T05:32:29.125Z,45.15
2019-01-23T05:34:58.622Z,44.75
2019-01-23T05:37:28.376Z,45.08
2019-01-23T05:39:58.023Z,44.13
2019-01-23T05:42:27.471Z,49.18
2019-01-23T05:44:57.075Z,46.23
2019-01-23T05:47:26.587Z,47.53
2019-01-23T05:49:56.107Z,43.75
2019-01-23T05:52:28.382Z,51.10
2019-01-23T05:54:58.081Z,50.65
2019-01-23T05:57:27.586Z,48.20
2019-01-23T06:00:02.315Z,47.83
2019-01-23T06:02:28.316Z,47.43
2019-01-23T06:04:57.804Z,47.25
2019-01-23T06:07:27.294Z,51.83
2019-01-23T06:09:56.904Z,50.65
2019-01-23T06:12:26.505Z,45.45
2019-01-23T06:14:56.064Z,48.52
2019-01-23T06:17:25.880Z,45.28
2019-01-23T06:19:55.384Z,46.15
2019-01-23T06:22:24.829Z,51.60
2019-01-23T06:24:57.348Z,45.98
2019-01-23T06:27:26.828Z,49.93
2019-01-23T06:29:56.357Z,49.55
2019-01-23T06:32:25.899Z,44.67
2019-01-23T06:34:57.011Z,49.90
2019-01-23T06:37:26.474Z,47.30
2019-01-23T06:39:56.026Z,49.83
2019-01-23T06:42:25.536Z,51.28
2019-01-23T06:44:58.323Z,50.40
2019-01-23T06:47:28.018Z,48.02
2019-01-23T06:49:58.902Z,52.90
2019-01-23T06:52:28.448Z,52.83
2019-01-23T06:54:58.078Z,53.90
2019-01-23T06:57:30.329Z,53.48
2019-01-23T06:59:59.968Z,46.73
2019-01-23T07:02:29.574Z,51.50
2019-01-23T07:05:00.492Z,52.78
2019-01-23T07:07:29.992Z,55.12
2019-01-23T07:09:59.947Z,53.33
2019-01-23T07:12:29.397Z,51.58
2019-01-23T07:14:58.910Z,46.20
2019-01-23T07:17:28.760Z,52.95
2019-01-23T07:19:58.275Z,52.13
2019-01-23T07:22:27.869Z,48.58
2019-01-23T07:24:57.528Z,48.63
2019-01-23T07:27:26.955Z,47.05
2019-01-23T07:29:56.651Z,50.43
2019-01-23T07:32:26.086Z,53.15
2019-01-23T07:34:58.722Z,50.00
2019-01-23T07:37:28.221Z,49.67
2019-01-23T07:39:57.672Z,50.15
2019-01-23T07:42:27.235Z,46.53
2019-01-23T07:44:56.863Z,48.05
2019-01-23T07:47:26.307Z,54.08
2019-01-23T07:49:55.746Z,56.37
2019-01-23T07:52:26.576Z,59.33
2019-01-23T07:54:56.094Z,51.18
2019-01-23T07:57:25.662Z,54.20
2019-01-23T07:59:55.394Z,50.80
2019-01-23T08:02:24.911Z,55.20
2019-01-23T08:04:54.567Z,50.80
2019-01-23T08:07:24.163Z,50.80
2019-01-23T08:09:56.598Z,56.88
2019-01-23T08:12:26.146Z,51.45
2019-01-23T08:14:55.587Z,49.58
2019-01-23T08:17:25.051Z,49.93
2019-01-23T08:19:54.781Z,50.17
2019-01-23T08:22:24.373Z,56.25
2019-01-23T08:24:54.038Z,46.23
2019-01-23T08:27:23.703Z,53.42
2019-01-23T08:29:53.171Z,62.53
2019-01-23T08:32:22.821Z,56.92
2019-01-23T08:34:52.430Z,65.28
2019-01-23T08:37:22.295Z,68.25
2019-01-23T08:39:51.804Z,64.92
2019-01-23T08:42:22.573Z,56.68
2019-01-23T08:44:52.033Z,56.48
2019-01-23T08:47:21.510Z,61.58
2019-01-23T08:49:51.475Z,58.30
2019-01-23T08:52:21.127Z,52.62
2019-01-23T08:54:50.920Z,51.92
2019-01-23T08:57:20.428Z,45.10
2019-01-23T08:59:50.237Z,48.15
2019-01-23T09:02:19.679Z,52.83
2019-01-23T09:04:52.845Z,49.85
2019-01-23T09:07:22.746Z,50.75
2019-01-23T09:09:52.324Z,48.52
2019-01-23T09:12:22.054Z,53.20
2019-01-23T09:14:51.720Z,44.77
2019-01-23T09:17:21.499Z,51.35
2019-01-23T09:19:51.075Z,50.30
2019-01-23T09:22:20.607Z,45.28
2019-01-23T09:24:50.223Z,54.65
2019-01-23T09:27:19.690Z,42.80
2019-01-23T09:29:49.228Z,45.12
2019-01-23T09:32:57.007Z,46.50
2019-01-23T09:36:13.641Z,46.50
2019-01-23T09:39:14.895Z,42.65
2019-01-23T09:42:04.271Z,47.85
2019-01-23T09:45:29.746Z,44.48
2019-01-23T09:48:08.535Z,52.73
2019-01-23T09:51:17.401Z,46.08
2019-01-23T09:53:56.325Z,41.05
2019-01-23T09:56:29.275Z,39.55
2019-01-23T09:59:02.636Z,42.83
2019-01-23T10:01:29.980Z,44.33
2019-01-23T10:03:59.650Z,44.90
2019-01-23T10:06:29.333Z,39.85
2019-01-23T10:08:59.213Z,49.03
2019-01-23T10:11:28.653Z,41.73
2019-01-23T10:13:58.292Z,47.20
2019-01-23T10:16:27.752Z,42.10
2019-01-23T10:18:57.302Z,39.98
2019-01-23T10:21:26.749Z,38.30
2019-01-23T10:23:56.386Z,35.92
2019-01-23T10:26:27.645Z,37.98
2019-01-23T10:28:57.173Z,38.28
2019-01-23T10:31:26.934Z,38.00
2019-01-23T10:33:56.388Z,43.30
2019-01-23T10:36:25.882Z,39.55
2019-01-23T10:38:55.566Z,37.03
2019-01-23T10:41:25.253Z,34.38
2019-01-23T10:43:54.986Z,33.18
2019-01-23T10:46:24.490Z,40.58
2019-01-23T10:48:53.950Z,37.95
2019-01-23T10:51:23.493Z,35.00
2019-01-23T10:53:53.013Z,32.98
2019-01-23T10:56:22.440Z,33.25
2019-01-23T10:58:52.108Z,33.80
2019-01-23T11:01:21.729Z,37.45
2019-01-23T11:03:51.673Z,34.95
2019-01-23T11:06:21.377Z,37.65
2019-01-23T11:08:51.342Z,32.70
2019-01-23T11:11:22.328Z,36.20
2019-01-23T11:13:51.977Z,33.98
2019-01-23T11:16:21.404Z,39.75
2019-01-23T11:18:50.965Z,35.73
2019-01-23T11:21:22.968Z,40.12
2019-01-23T11:23:52.494Z,35.15
2019-01-23T11:26:22.209Z,37.60
2019-01-23T11:28:51.701Z,28.90
2019-01-23T11:31:21.707Z,31.82
2019-01-23T11:33:53.968Z,33.30
2019-01-23T11:36:23.785Z,33.38
2019-01-23T11:38:53.557Z,31.02
2019-01-23T11:41:26.636Z,37.63
2019-01-23T11:43:56.368Z,33.15
2019-01-23T11:46:27.551Z,35.17
2019-01-23T11:48:57.430Z,33.63
2019-01-23T11:51:27.446Z,34.33
2019-01-23T11:53:56.945Z,36.42
2019-01-23T11:56:28.235Z,31.52
2019-01-23T11:58:58.413Z,31.25
2019-01-23T12:01:27.972Z,35.58
2019-01-23T12:03:57.505Z,35.23
2019-01-23T12:06:26.950Z,34.88
2019-01-23T12:08:56.444Z,38.25
2019-01-23T12:11:26.256Z,34.70
2019-01-23T12:13:55.704Z,35.25
2019-01-23T12:16:25.240Z,42.38
2019-01-23T12:18:54.661Z,40.70
2019-01-23T12:21:24.409Z,39.13
2019-01-23T12:23:58.229Z,42.50
2019-01-23T12:26:25.503Z,41.73
2019-01-23T12:28:54.995Z,38.30
2019-01-23T12:31:27.604Z,48.30
2019-01-23T12:33:57.134Z,40.60
2019-01-23T12:36:26.679Z,43.33
2019-01-23T12:38:56.526Z,39.35
2019-01-23T12:41:25.933Z,41.83
2019-01-23T12:43:56.439Z,37.15
2019-01-23T12:46:27.667Z,43.60
2019-01-23T12:48:57.006Z,37.58
2019-01-23T12:51:26.504Z,36.15
2019-01-23T12:53:56.412Z,35.98
2019-01-23T12:56:25.901Z,36.00
2019-01-23T12:58:55.316Z,36.33
2019-01-23T13:01:24.711Z,40.28
2019-01-23T13:03:54.310Z,36.30
2019-01-23T13:06:23.821Z,41.92
2019-01-23T13:08:53.259Z,37.75
2019-01-23T13:11:23.020Z,39.90
2019-01-23T13:13:52.470Z,38.95
2019-01-23T13:16:21.965Z,37.90
2019-01-23T13:18:51.535Z,37.17
2019-01-23T13:21:20.977Z,38.90
2019-01-23T13:23:50.478Z,35.13
2019-01-23T13:26:20.123Z,36.33
2019-01-23T13:28:49.669Z,36.05
2019-01-23T13:31:19.380Z,33.90
2019-01-23T13:33:49.077Z,32.78
2019-01-23T13:36:18.601Z,36.55
2019-01-23T13:38:48.219Z,38.30
2019-01-23T13:41:17.720Z,35.85
2019-01-23T13:43:47.141Z,37.93
2019-01-23T13:46:16.745Z,38.30
2019-01-23T13:48:46.336Z,40.73
2019-01-23T13:51:15.943Z,39.30
2019-01-23T13:53:45.511Z,35.98
2019-01-23T13:56:14.998Z,39.23
2019-01-23T13:58:44.524Z,37.10
2019-01-23T14:01:14.136Z,36.60
2019-01-23T14:03:43.655Z,38.60
2019-01-23T14:06:13.180Z,39.30
2019-01-23T14:08:42.958Z,36.10
2019-01-23T14:11:12.627Z,37.58
2019-01-23T14:13:42.298Z,38.90
2019-01-23T14:16:12.238Z,38.67
2019-01-23T14:18:41.677Z,39.23
2019-01-23T14:21:11.225Z,37.98
2019-01-23T14:23:40.688Z,40.00
2019-01-23T14:26:10.164Z,38.55
2019-01-23T14:28:39.798Z,39.70
2019-01-23T14:31:09.293Z,39.00
2019-01-23T14:33:39.129Z,34.27
2019-01-23T14:36:08.667Z,40.70
2019-01-23T14:38:38.168Z,37.35
2019-01-23T14:41:10.415Z,38.53
2019-01-23T14:43:42.666Z,34.92
2019-01-23T14:46:12.250Z,37.93
2019-01-23T14:48:41.846Z,38.23
2019-01-23T14:51:11.380Z,37.23
2019-01-23T14:53:40.783Z,37.45
2019-01-23T14:56:10.253Z,40.43
2019-01-23T14:58:39.947Z,38.67
2019-01-23T15:01:09.393Z,39.83
2019-01-23T15:03:38.915Z,39.48
2019-01-23T15:06:08.619Z,40.50
2019-01-23T15:08:38.047Z,39.58
2019-01-23T15:11:10.405Z,36.90
2019-01-23T15:13:39.966Z,39.10
2019-01-23T15:16:09.491Z,36.10
2019-01-23T15:18:39.027Z,37.05
2019-01-23T15:21:08.620Z,36.35
2019-01-23T15:23:38.124Z,36.70
2019-01-23T15:26:07.525Z,37.25
2019-01-23T15:28:37.100Z,39.70
2019-01-23T15:31:06.515Z,34.73
2019-01-23T15:33:37.146Z,32.93
2019-01-23T15:36:06.702Z,36.77
2019-01-23T15:38:36.344Z,34.78
2019-01-23T15:41:05.854Z,32.93
2019-01-23T15:43:35.295Z,33.10
2019-01-23T15:46:05.131Z,34.15
2019-01-23T15:48:34.630Z,38.45
2019-01-23T15:51:04.401Z,34.55
2019-01-23T15:53:34.317Z,36.85
2019-01-23T15:56:07.598Z,37.33
2019-01-23T15:58:37.097Z,35.98
2019-01-23T16:01:06.504Z,31.10
2019-01-23T16:03:36.254Z,34.58
2019-01-23T16:06:06.000Z,36.28
2019-01-23T16:08:35.708Z,33.92
2019-01-23T16:11:05.352Z,34.13
2019-01-23T16:13:42.021Z,33.60
2019-01-23T16:16:06.424Z,32.90
2019-01-23T16:18:36.333Z,32.45
2019-01-23T16:21:05.760Z,34.00
2019-01-23T16:23:35.240Z,34.30
2019-01-23T16:26:04.705Z,33.60
2019-01-23T16:28:34.220Z,35.98
2019-01-23T16:31:03.771Z,35.50
2019-01-23T16:33:33.243Z,37.13
2019-01-23T16:36:02.918Z,38.67
2019-01-23T16:38:32.331Z,34.63
2019-01-23T16:41:01.894Z,38.15
2019-01-23T16:43:31.811Z,37.85
2019-01-23T16:46:01.718Z,38.25
2019-01-23T16:48:31.130Z,41.45
2019-01-23T16:51:00.795Z,40.15
2019-01-23T16:53:30.521Z,39.48
2019-01-23T16:56:00.063Z,42.83
2019-01-23T16:58:29.756Z,40.05
2019-01-23T17:00:59.363Z,42.73
2019-01-23T17:03:29.069Z,38.05
2019-01-23T17:05:58.894Z,41.13
2019-01-23T17:08:28.595Z,40.23
2019-01-23T17:10:58.015Z,40.35
2019-01-23T17:13:27.727Z,39.23
2019-01-23T17:15:57.370Z,39.23
2019-01-23T17:18:27.088Z,39.30
2019-01-23T17:20:56.686Z,39.27
2019-01-23T17:23:26.104Z,41.08
2019-01-23T17:25:55.612Z,38.23
2019-01-23T17:28:25.323Z,40.78
2019-01-23T17:30:54.933Z,42.90
2019-01-23T17:33:24.363Z,42.45
2019-01-23T17:35:54.237Z,42.55
2019-01-23T17:38:23.714Z,45.45
2019-01-23T17:40:53.522Z,40.38
2019-01-23T17:43:25.226Z,42.05
2019-01-23T17:45:54.893Z,42.95
2019-01-23T17:48:24.489Z,44.48
2019-01-23T17:50:54.162Z,45.17
2019-01-23T17:53:23.722Z,45.17
2019-01-23T17:55:53.194Z,42.15
2019-01-23T17:58:23.030Z,50.90
2019-01-23T18:00:59.129Z,44.18
2019-01-23T18:03:28.437Z,46.40
2019-01-23T18:05:57.949Z,43.45
2019-01-23T18:08:29.348Z,43.63
2019-01-23T18:10:58.903Z,43.78
2019-01-23T18:13:28.480Z,44.03
2019-01-23T18:16:04.233Z,53.92
2019-01-23T18:18:33.812Z,47.83
2019-01-23T18:21:03.468Z,46.28
2019-01-23T18:23:32.988Z,48.25
2019-01-23T18:26:02.582Z,51.02
2019-01-23T18:28:32.236Z,46.05
2019-01-23T18:31:15.963Z,44.85
2019-01-23T18:34:06.177Z,45.20
2019-01-23T18:37:05.977Z,49.10
2019-01-23T18:40:05.560Z,45.03
2019-01-23T18:43:11.639Z,48.05
2019-01-23T18:46:25.053Z,45.92
2019-01-23T18:49:20.654Z,47.03
2019-01-23T18:52:10.178Z,50.78
2019-01-23T18:54:39.825Z,41.30
2019-01-23T18:57:12.425Z,43.30
2019-01-23T18:59:41.934Z,42.00
2019-01-23T19:02:12.182Z,47.30
2019-01-23T19:04:41.650Z,45.92
2019-01-23T19:07:11.551Z,45.28
2019-01-23T19:09:41.135Z,50.33
2019-01-23T19:12:10.985Z,47.53
2019-01-23T19:14:41.003Z,46.23
2019-01-23T19:17:11.488Z,46.23
2019-01-23T19:19:41.534Z,46.70
2019-01-23T19:22:11.203Z,48.08
2019-01-23T19:24:41.388Z,42.25
2019-01-23T19:27:11.280Z,41.95
2019-01-23T19:29:41.057Z,48.35
2019-01-23T19:32:10.611Z,40.12
2019-01-23T19:34:40.190Z,48.45
2019-01-23T19:37:09.708Z,48.17
2019-01-23T19:39:39.500Z,46.23
2019-01-23T19:42:09.394Z,48.52
2019-01-23T19:44:39.184Z,46.33
2019-01-23T19:47:08.696Z,43.23
2019-01-23T19:49:38.305Z,50.75
2019-01-23T19:52:07.873Z,44.98
2019-01-23T19:54:37.525Z,46.25
2019-01-23T19:57:07.104Z,46.80
2019-01-23T19:59:37.440Z,45.20
2019-01-23T20:02:06.935Z,48.52
2019-01-23T20:04:36.471Z,53.78
2019-01-23T20:07:06.193Z,46.40
2019-01-23T20:09:35.708Z,44.77
2019-01-23T20:12:05.315Z,48.68
2019-01-23T20:14:35.073Z,42.43
2019-01-23T20:17:04.671Z,43.17
2019-01-23T20:19:34.450Z,44.88
2019-01-23T20:22:03.889Z,48.73
2019-01-23T20:24:33.686Z,43.20
2019-01-23T20:27:03.326Z,49.53
2019-01-23T20:29:33.332Z,49.80
2019-01-23T20:32:06.236Z,50.23
2019-01-23T20:34:35.822Z,48.52
2019-01-23T20:37:05.812Z,41.92
2019-01-23T20:39:35.401Z,47.85
2019-01-23T20:42:05.334Z,46.85
2019-01-23T20:44:34.881Z,53.45
2019-01-23T20:47:05.001Z,45.35
2019-01-23T20:49:34.901Z,43.48
2019-01-23T20:52:05.085Z,47.78
2019-01-23T20:54:34.858Z,47.60
2019-01-23T20:57:04.583Z,43.52
2019-01-23T20:59:34.122Z,47.60
2019-01-23T21:02:03.945Z,46.30
2019-01-23T21:04:33.459Z,50.60
2019-01-23T21:07:03.095Z,44.88
2019-01-23T21:09:32.694Z,48.52
2019-01-23T21:12:02.485Z,47.98
2019-01-23T21:14:32.049Z,50.85
2019-01-23T21:17:01.644Z,43.75
2019-01-23T21:19:31.319Z,48.65
2019-01-23T21:22:00.765Z,39.50
2019-01-23T21:24:30.345Z,45.43
2019-01-23T21:27:00.397Z,43.35
2019-01-23T21:29:30.023Z,41.50
2019-01-23T21:32:01.392Z,40.10
2019-01-23T21:34:30.981Z,43.87
2019-01-23T21:37:00.563Z,42.15
2019-01-23T21:39:30.205Z,43.52
2019-01-23T21:42:00.008Z,44.67
2019-01-23T21:44:29.464Z,42.48
2019-01-23T21:46:59.058Z,41.98
2019-01-23T21:49:32.399Z,41.80
2019-01-23T21:52:02.130Z,47.88
2019-01-23T21:54:31.609Z,47.73
2019-01-23T21:57:01.809Z,42.62
2019-01-23T21:59:31.973Z,43.40
2019-01-23T22:02:02.662Z,41.68
2019-01-23T22:04:33.787Z,42.38
2019-01-23T22:07:03.624Z,44.23
2019-01-23T22:09:33.665Z,41.42
2019-01-23T22:12:03.701Z,45.20
2019-01-23T22:14:33.431Z,47.62
2019-01-23T22:17:03.134Z,41.20
2019-01-23T22:19:33.309Z,42.03
2019-01-23T22:22:03.080Z,43.15
2019-01-23T22:24:33.054Z,37.53
2019-01-23T22:27:03.251Z,52.45
2019-01-23T22:29:33.562Z,44.10
2019-01-23T22:32:03.531Z,41.08
2019-01-23T22:34:33.487Z,38.63
2019-01-23T22:37:08.374Z,41.40
2019-01-23T22:39:38.669Z,43.70
2019-01-23T22:42:08.905Z,40.25
2019-01-23T22:44:39.361Z,38.95
2019-01-23T22:47:09.996Z,40.65
2019-01-23T22:49:42.314Z,45.10
2019-01-23T22:52:11.971Z,41.15
2019-01-23T22:54:42.060Z,38.45
2019-01-23T22:57:11.776Z,40.33
2019-01-23T22:59:41.536Z,50.52
2019-01-23T23:02:11.275Z,46.02
2019-01-23T23:04:40.921Z,59.77
2019-01-23T23:07:10.540Z,54.30
2019-01-23T23:09:40.019Z,48.13
2019-01-23T23:12:09.572Z,50.25
2019-01-23T23:14:40.756Z,50.70
2019-01-23T23:17:10.440Z,55.48
2019-01-23T23:19:39.878Z,51.77
2019-01-23T23:22:09.300Z,54.15
2019-01-23T23:24:38.796Z,52.73
2019-01-23T23:27:13.136Z,54.25
2019-01-23T23:29:42.645Z,49.15
2019-01-23T23:32:12.391Z,53.50
2019-01-23T23:34:42.111Z,57.98
2019-01-23T23:37:11.651Z,54.67
2019-01-23T23:39:41.462Z,55.55
2019-01-23T23:42:13.028Z,51.23
2019-01-23T23:44:42.628Z,51.75
2019-01-23T23:47:12.222Z,53.52
2019-01-23T23:49:55.983Z,57.67
2019-01-23T23:52:25.529Z,52.67
2019-01-23T23:54:55.217Z,54.67
2019-01-23T23:57:24.789Z,57.88
2019-01-23T23:59:54.781Z,55.80
